Terminal Aerodrome Forecast
Issued by NWS

Home | Current Version | Previous Version | Text Only | Print | Product List | Glossary On
Versions: 1 2 3 4 5 6 7 8 9 10 11 12 13 14 15 16 17 18 19 20 21 22 23 24 25 26 27 28 29 30 31 32 33 34 35 36 37 38 39 40
213
FTUS41 KBOX 022022 AAA
TAFFMH
TAF AMD
KFMH 022022Z 0220/0318 27012G20KT P6SM SCT045
      TEMPO 0220/0223 BKN045
     FM030500 28010G26KT P6SM SCT100
     FM031600 32011G22KT P6SM SCT250=

USA.gov is the U.S. government's official web portal to all federal, state and local government web resources and services.